createdAt,value
2017-08-29T00:01:46.561Z,20.80
2017-08-29T00:04:14.075Z,19.60
2017-08-29T00:06:41.628Z,17.70
2017-08-29T00:09:09.152Z,16.17
2017-08-29T00:11:36.681Z,16.93
2017-08-29T00:14:04.186Z,17.77
2017-08-29T00:16:31.709Z,18.30
2017-08-29T00:18:59.220Z,20.20
2017-08-29T00:21:26.760Z,17.57
2017-08-29T00:23:54.297Z,15.70
2017-08-29T00:26:21.808Z,17.33
2017-08-29T00:28:49.341Z,18.73
2017-08-29T00:31:16.887Z,15.23
2017-08-29T00:33:44.397Z,17.20
2017-08-29T00:36:11.999Z,18.07
2017-08-29T00:38:39.511Z,17.80
2017-08-29T00:41:07.079Z,21.00
2017-08-29T00:43:34.619Z,20.30
2017-08-29T00:46:02.155Z,21.37
2017-08-29T00:48:29.682Z,23.20
2017-08-29T00:50:57.203Z,17.47
2017-08-29T00:53:24.763Z,18.23
2017-08-29T00:55:52.341Z,20.50
2017-08-29T00:58:19.857Z,17.77
2017-08-29T01:00:47.386Z,16.70
2017-08-29T01:03:14.899Z,20.40
2017-08-29T01:05:42.416Z,18.27
2017-08-29T01:08:09.927Z,17.33
2017-08-29T01:10:37.468Z,19.43
2017-08-29T01:13:05.007Z,19.17
2017-08-29T01:15:32.536Z,14.60
2017-08-29T01:18:00.045Z,16.87
2017-08-29T01:20:27.576Z,17.00
2017-08-29T01:22:55.108Z,14.87
2017-08-29T01:25:22.672Z,16.13
2017-08-29T01:27:50.189Z,15.23
2017-08-29T01:30:17.828Z,14.93
2017-08-29T01:32:45.334Z,18.73
2017-08-29T01:35:12.855Z,16.70
2017-08-29T01:37:40.368Z,15.23
2017-08-29T01:40:07.888Z,17.37
2017-08-29T01:42:35.395Z,15.10
2017-08-29T01:45:02.907Z,15.40
2017-08-29T01:47:30.441Z,15.90
2017-08-29T01:49:57.985Z,15.37
2017-08-29T01:52:25.505Z,17.90
2017-08-29T01:54:53.067Z,16.97
2017-08-29T01:57:20.599Z,18.40
2017-08-29T01:59:48.118Z,15.87
2017-08-29T02:02:15.636Z,14.77
2017-08-29T02:04:43.165Z,16.87
2017-08-29T02:07:10.688Z,16.87
2017-08-29T02:09:38.211Z,15.67
2017-08-29T02:12:05.764Z,17.80
2017-08-29T02:14:33.290Z,19.50
2017-08-29T02:17:00.808Z,18.23
2017-08-29T02:19:28.321Z,17.07
2017-08-29T02:21:55.833Z,18.60
2017-08-29T02:24:23.351Z,20.07
2017-08-29T02:26:50.884Z,15.03
2017-08-29T02:29:18.406Z,16.03
2017-08-29T02:31:45.951Z,16.30
2017-08-29T02:34:13.471Z,24.90
2017-08-29T02:36:40.983Z,22.23
2017-08-29T02:39:08.505Z,19.03
2017-08-29T02:41:36.027Z,15.70
2017-08-29T02:44:03.566Z,15.27
2017-08-29T02:46:31.110Z,15.00
2017-08-29T02:48:58.632Z,16.23
2017-08-29T02:51:26.148Z,17.97
2017-08-29T02:53:53.671Z,16.37
2017-08-29T02:56:21.195Z,16.17
2017-08-29T02:58:48.714Z,21.47
2017-08-29T03:01:17.231Z,19.77
2017-08-29T03:03:44.754Z,15.60
2017-08-29T03:06:12.287Z,17.03
2017-08-29T03:08:39.814Z,16.90
2017-08-29T03:11:07.347Z,18.60
2017-08-29T03:13:34.866Z,17.73
2017-08-29T03:16:02.379Z,15.10
2017-08-29T03:18:29.907Z,15.43
2017-08-29T03:20:57.437Z,22.00
2017-08-29T03:23:24.970Z,21.80
2017-08-29T03:25:52.487Z,20.03
2017-08-29T03:28:20.003Z,20.10
2017-08-29T03:30:47.532Z,21.77
2017-08-29T03:33:15.048Z,23.70
2017-08-29T03:35:42.580Z,19.00
2017-08-29T03:38:10.096Z,16.77
2017-08-29T03:40:37.631Z,16.20
2017-08-29T03:43:05.153Z,23.90
2017-08-29T03:45:32.666Z,18.07
2017-08-29T03:48:00.188Z,18.60
2017-08-29T03:50:27.718Z,22.77
2017-08-29T03:52:55.246Z,22.43
2017-08-29T03:55:22.790Z,18.33
2017-08-29T03:57:50.319Z,15.63
2017-08-29T04:00:17.833Z,15.50
2017-08-29T04:02:45.371Z,22.43
2017-08-29T04:05:12.905Z,17.80
2017-08-29T04:07:40.431Z,19.00
2017-08-29T04:10:08.034Z,15.17
2017-08-29T04:12:35.551Z,15.90
2017-08-29T04:15:03.072Z,16.53
2017-08-29T04:17:30.596Z,17.90
2017-08-29T04:19:58.137Z,16.67
2017-08-29T04:22:25.659Z,16.60
2017-08-29T04:24:53.203Z,16.47
2017-08-29T04:27:20.713Z,17.40
2017-08-29T04:29:48.255Z,16.83
2017-08-29T04:32:15.772Z,13.37
2017-08-29T04:34:43.282Z,17.60
2017-08-29T04:37:10.796Z,16.17
2017-08-29T04:39:38.323Z,17.10
2017-08-29T04:42:05.841Z,20.30
2017-08-29T04:44:33.360Z,18.00
2017-08-29T04:47:00.903Z,16.73
2017-08-29T04:49:28.477Z,18.00
2017-08-29T04:51:55.988Z,16.73
2017-08-29T04:54:23.505Z,16.53
2017-08-29T04:56:51.071Z,17.87
2017-08-29T04:59:18.594Z,16.60
2017-08-29T05:01:46.145Z,17.83
2017-08-29T05:04:13.678Z,16.53
2017-08-29T05:06:41.191Z,15.60
2017-08-29T05:09:08.695Z,13.40
2017-08-29T05:11:36.213Z,17.60
2017-08-29T05:14:03.727Z,15.70
2017-08-29T05:16:31.261Z,24.10
2017-08-29T05:18:58.777Z,15.60
2017-08-29T05:21:26.302Z,14.90
2017-08-29T05:23:53.819Z,14.30
2017-08-29T05:26:21.349Z,16.23
2017-08-29T05:28:48.880Z,15.67
2017-08-29T05:31:16.390Z,13.63
2017-08-29T05:33:43.912Z,13.90
2017-08-29T05:36:11.430Z,15.27
2017-08-29T05:38:38.959Z,13.37
2017-08-29T05:41:06.486Z,14.67
2017-08-29T05:43:34.009Z,16.63
2017-08-29T05:46:01.531Z,13.90
2017-08-29T05:48:29.060Z,14.40
2017-08-29T05:50:56.596Z,14.93
2017-08-29T05:53:24.111Z,14.80
2017-08-29T05:55:51.629Z,13.70
2017-08-29T05:58:19.156Z,14.37
2017-08-29T06:00:46.679Z,12.20
2017-08-29T06:03:14.220Z,14.77
2017-08-29T06:05:41.734Z,12.63
2017-08-29T06:08:09.257Z,12.87
2017-08-29T06:10:36.777Z,14.73
2017-08-29T06:13:04.299Z,14.17
2017-08-29T06:15:31.825Z,13.10
2017-08-29T06:17:59.352Z,13.20
2017-08-29T06:20:26.864Z,13.00
2017-08-29T06:22:54.389Z,13.73
2017-08-29T06:25:21.896Z,13.23
2017-08-29T06:27:49.426Z,12.43
2017-08-29T06:30:16.960Z,13.47
2017-08-29T06:32:44.491Z,12.90
2017-08-29T06:35:12.018Z,12.10
2017-08-29T06:37:39.551Z,14.30
2017-08-29T06:40:07.080Z,15.03
2017-08-29T06:42:34.622Z,12.77
2017-08-29T06:45:02.152Z,16.30
2017-08-29T06:47:29.685Z,16.50
2017-08-29T06:49:57.233Z,14.60
2017-08-29T06:52:24.745Z,13.97
2017-08-29T06:54:52.264Z,13.47
2017-08-29T06:57:19.782Z,12.60
2017-08-29T06:59:47.287Z,13.07
2017-08-29T07:02:14.820Z,12.53
2017-08-29T07:04:42.332Z,12.97
2017-08-29T07:07:09.852Z,12.40
2017-08-29T07:09:37.377Z,13.50
2017-08-29T07:12:04.899Z,13.73
2017-08-29T07:14:32.425Z,14.90
2017-08-29T07:16:59.947Z,13.17
2017-08-29T07:19:27.492Z,13.50
2017-08-29T07:21:55.001Z,16.17
2017-08-29T07:24:22.523Z,13.10
2017-08-29T07:26:50.039Z,14.70
2017-08-29T07:29:17.582Z,14.17
2017-08-29T07:31:45.152Z,13.73
2017-08-29T07:34:12.675Z,13.17
2017-08-29T07:36:40.222Z,13.67
2017-08-29T07:39:07.738Z,11.67
2017-08-29T07:41:35.279Z,15.70
2017-08-29T07:44:02.801Z,12.00
2017-08-29T07:46:30.326Z,13.97
2017-08-29T07:48:57.837Z,14.67
2017-08-29T07:51:25.373Z,11.00
2017-08-29T07:53:52.883Z,10.57
2017-08-29T07:56:20.397Z,11.63
2017-08-29T07:58:47.929Z,11.37
2017-08-29T08:01:15.460Z,11.70
2017-08-29T08:03:42.984Z,11.60
2017-08-29T08:06:10.506Z,11.90
2017-08-29T08:08:38.043Z,12.37
2017-08-29T08:11:05.561Z,12.60
2017-08-29T08:13:33.091Z,13.00
2017-08-29T08:16:00.616Z,11.10
2017-08-29T08:18:28.140Z,11.43
2017-08-29T08:20:55.681Z,12.77
2017-08-29T08:23:23.195Z,13.73
2017-08-29T08:25:50.719Z,13.07
2017-08-29T08:28:18.263Z,13.43
2017-08-29T08:30:45.799Z,12.57
2017-08-29T08:33:13.405Z,12.77
2017-08-29T08:35:40.941Z,10.20
2017-08-29T08:38:08.469Z,10.50
2017-08-29T08:40:35.999Z,9.90
2017-08-29T08:43:03.503Z,9.47
2017-08-29T08:45:31.031Z,11.50
2017-08-29T08:47:58.571Z,11.03
2017-08-29T08:50:26.108Z,10.27
2017-08-29T08:52:53.647Z,10.93
2017-08-29T08:55:21.160Z,11.10
2017-08-29T08:57:48.721Z,11.20
2017-08-29T09:00:16.261Z,10.10
2017-08-29T09:02:43.787Z,10.83
2017-08-29T09:05:11.296Z,9.03
2017-08-29T09:07:38.824Z,9.70
2017-08-29T09:10:06.332Z,9.80
2017-08-29T09:12:33.846Z,9.90
2017-08-29T09:15:01.372Z,8.63
2017-08-29T09:17:32.115Z,6.57
2017-08-29T09:20:03.036Z,8.00
2017-08-29T09:22:35.173Z,10.13
2017-08-29T09:25:06.330Z,9.20
2017-08-29T09:27:37.299Z,7.93
2017-08-29T09:30:08.924Z,7.30
2017-08-29T09:32:42.691Z,8.30
2017-08-29T09:35:14.019Z,8.20
2017-08-29T09:37:46.975Z,7.20
2017-08-29T09:40:17.613Z,6.90
2017-08-29T09:42:47.321Z,7.60
2017-08-29T09:45:19.034Z,7.10
2017-08-29T09:47:51.970Z,6.30
2017-08-29T09:50:23.002Z,6.47
2017-08-29T09:52:54.465Z,6.40
2017-08-29T09:55:24.960Z,5.12
2017-08-29T09:57:55.987Z,7.00
2017-08-29T10:00:26.867Z,6.37
2017-08-29T10:02:57.462Z,5.82
2017-08-29T10:05:28.816Z,6.57
2017-08-29T10:08:01.491Z,6.80
2017-08-29T10:10:35.048Z,7.43
2017-08-29T10:13:06.176Z,6.63
2017-08-29T10:15:39.406Z,5.97
2017-08-29T10:18:11.243Z,6.12
2017-08-29T10:20:43.762Z,7.20
2017-08-29T10:23:14.748Z,6.40
2017-08-29T10:25:46.495Z,6.05
2017-08-29T10:28:16.732Z,5.82
2017-08-29T10:30:47.250Z,6.00
2017-08-29T10:33:18.249Z,5.78
2017-08-29T10:35:50.420Z,4.60
2017-08-29T10:38:20.842Z,4.93
2017-08-29T10:40:50.244Z,5.80
2017-08-29T10:43:22.899Z,6.00
2017-08-29T10:45:52.344Z,5.60
2017-08-29T10:48:23.471Z,5.57
2017-08-29T10:50:53.467Z,5.03
2017-08-29T10:53:23.283Z,5.28
2017-08-29T10:55:54.606Z,6.30
2017-08-29T10:58:26.516Z,5.62
2017-08-29T11:00:59.609Z,5.03
2017-08-29T11:03:30.781Z,5.53
2017-08-29T11:06:02.653Z,6.13
2017-08-29T11:08:32.736Z,6.33
2017-08-29T11:11:03.036Z,6.27
2017-08-29T11:13:33.198Z,7.00
2017-08-29T11:16:02.851Z,6.07
2017-08-29T11:18:34.631Z,8.10
2017-08-29T11:21:06.808Z,7.30
2017-08-29T11:23:40.363Z,6.73
2017-08-29T11:26:11.955Z,7.20
2017-08-29T11:28:42.728Z,6.60
2017-08-29T11:31:15.364Z,6.67
2017-08-29T11:33:47.413Z,7.30
2017-08-29T11:36:20.996Z,7.50
2017-08-29T11:38:51.643Z,6.63
2017-08-29T11:41:22.515Z,7.10
2017-08-29T11:43:53.661Z,8.67
2017-08-29T11:46:25.917Z,7.00
2017-08-29T11:48:54.909Z,7.33
2017-08-29T11:51:26.160Z,8.03
2017-08-29T11:53:57.048Z,7.97
2017-08-29T11:56:28.765Z,6.67
2017-08-29T11:58:58.651Z,7.20
2017-08-29T12:01:29.906Z,7.90
2017-08-29T12:04:01.831Z,7.60
2017-08-29T12:06:32.493Z,7.97
2017-08-29T12:09:01.801Z,7.47
2017-08-29T12:11:32.031Z,7.07
2017-08-29T12:14:04.024Z,8.10
2017-08-29T12:16:35.378Z,7.87
2017-08-29T12:19:07.328Z,7.20
2017-08-29T12:21:39.352Z,7.50
2017-08-29T12:24:11.067Z,7.20
2017-08-29T12:26:41.838Z,7.17
2017-08-29T12:29:13.413Z,7.90
2017-08-29T12:31:43.070Z,7.77
2017-08-29T12:34:14.673Z,8.17
2017-08-29T12:36:46.453Z,7.03
2017-08-29T12:39:17.254Z,7.60
2017-08-29T12:41:48.012Z,7.13
2017-08-29T12:44:20.253Z,7.77
2017-08-29T12:46:53.078Z,7.87
2017-08-29T12:49:25.366Z,6.87
2017-08-29T12:51:56.139Z,7.17
2017-08-29T12:54:27.728Z,7.30
2017-08-29T12:56:59.838Z,7.43
2017-08-29T12:59:28.098Z,7.50
2017-08-29T13:01:58.579Z,7.50
2017-08-29T13:04:29.631Z,7.50
2017-08-29T13:07:02.616Z,7.57
2017-08-29T13:09:33.056Z,28.23
2017-08-29T13:12:04.424Z,7.07
2017-08-29T13:14:34.891Z,7.63
2017-08-29T13:17:05.392Z,7.40
2017-08-29T13:19:34.412Z,7.90
2017-08-29T13:22:06.576Z,7.97
2017-08-29T13:24:38.626Z,7.20
2017-08-29T13:27:10.179Z,7.70
2017-08-29T13:30:11.245Z,7.50
2017-08-29T13:32:39.676Z,7.40
2017-08-29T13:35:10.928Z,7.37
2017-08-29T13:37:42.428Z,7.57
2017-08-29T13:40:14.529Z,7.63
2017-08-29T13:42:46.112Z,7.60
2017-08-29T13:45:18.994Z,7.93
2017-08-29T13:47:48.024Z,7.10
2017-08-29T13:50:18.471Z,8.20
2017-08-29T13:52:47.986Z,8.83
2017-08-29T13:55:20.472Z,8.40
2017-08-29T13:58:12.357Z,6.87
2017-08-29T14:04:13.875Z,7.67
2017-08-29T14:06:43.658Z,7.57
2017-08-29T14:09:13.585Z,8.83
2017-08-29T14:11:46.860Z,7.23
2017-08-29T14:14:18.441Z,7.20
2017-08-29T14:16:46.694Z,7.27
2017-08-29T14:19:18.946Z,8.27
2017-08-29T14:21:50.090Z,7.43
2017-08-29T14:24:21.887Z,8.00
2017-08-29T14:26:53.516Z,7.53
2017-08-29T14:29:23.950Z,7.60
2017-08-29T14:31:56.135Z,7.97
2017-08-29T14:34:26.806Z,8.00
2017-08-29T14:36:58.730Z,8.17
2017-08-29T14:39:26.556Z,7.70
2017-08-29T14:41:54.076Z,8.23
2017-08-29T14:44:21.582Z,7.87
2017-08-29T14:47:00.730Z,7.87
2017-08-29T14:49:28.266Z,7.97
2017-08-29T14:51:55.779Z,7.33
2017-08-29T14:54:23.281Z,7.80
2017-08-29T14:56:50.831Z,7.63
2017-08-29T14:59:18.387Z,8.13
2017-08-29T15:01:45.891Z,8.10
2017-08-29T15:04:13.410Z,7.80
2017-08-29T15:06:40.968Z,7.77
2017-08-29T15:09:08.484Z,8.23
2017-08-29T15:11:36.007Z,7.70
2017-08-29T15:14:03.538Z,7.47
2017-08-29T15:16:31.072Z,7.60
2017-08-29T15:18:58.580Z,8.27
2017-08-29T15:21:26.094Z,7.37
2017-08-29T15:23:53.620Z,8.47
2017-08-29T15:26:21.134Z,7.63
2017-08-29T15:28:48.641Z,7.90
2017-08-29T15:31:16.182Z,7.20
2017-08-29T15:33:43.687Z,7.90
2017-08-29T15:36:11.272Z,8.00
2017-08-29T15:38:38.784Z,8.30
2017-08-29T15:41:06.322Z,7.50
2017-08-29T15:43:33.847Z,7.23
2017-08-29T15:46:01.370Z,7.70
2017-08-29T15:48:28.884Z,7.40
2017-08-29T15:50:56.389Z,7.93
2017-08-29T15:53:23.944Z,8.00
2017-08-29T15:55:51.471Z,7.47
2017-08-29T15:58:18.984Z,7.87
2017-08-29T16:00:46.508Z,7.40
2017-08-29T16:03:14.031Z,6.80
2017-08-29T16:05:41.631Z,8.07
2017-08-29T16:08:09.152Z,7.20
2017-08-29T16:10:36.663Z,7.60
2017-08-29T16:13:04.200Z,7.87
2017-08-29T16:15:31.767Z,7.37
2017-08-29T16:17:59.270Z,7.70
2017-08-29T16:20:26.888Z,7.60
2017-08-29T16:22:54.411Z,7.50
2017-08-29T16:25:21.959Z,8.30
2017-08-29T16:27:49.501Z,7.73
2017-08-29T16:30:17.021Z,7.33
2017-08-29T16:32:44.555Z,7.83
2017-08-29T16:35:12.060Z,7.40
2017-08-29T16:37:39.570Z,7.70
2017-08-29T16:40:07.077Z,7.57
2017-08-29T16:42:34.584Z,8.17
2017-08-29T16:45:02.103Z,7.90
2017-08-29T16:47:29.631Z,8.40
2017-08-29T16:49:57.146Z,8.37
2017-08-29T16:52:24.710Z,8.27
2017-08-29T16:54:52.234Z,9.10
2017-08-29T16:57:19.755Z,8.40
2017-08-29T16:59:47.281Z,9.07
2017-08-29T17:02:14.808Z,8.07
2017-08-29T17:04:42.344Z,8.20
2017-08-29T17:07:09.860Z,9.27
2017-08-29T17:09:37.380Z,8.77
2017-08-29T17:12:04.897Z,9.10
2017-08-29T17:14:32.438Z,7.97
2017-08-29T17:17:00.032Z,9.23
2017-08-29T17:19:27.556Z,8.83
2017-08-29T17:21:55.091Z,9.00
2017-08-29T17:24:22.621Z,7.63
2017-08-29T17:26:50.127Z,8.50
2017-08-29T17:29:17.647Z,8.90
2017-08-29T17:31:45.166Z,9.50
2017-08-29T17:34:12.667Z,8.67
2017-08-29T17:36:40.222Z,8.60
2017-08-29T17:39:07.767Z,8.23
2017-08-29T17:41:35.313Z,8.40
2017-08-29T17:44:02.838Z,8.50
2017-08-29T17:46:30.353Z,8.50
2017-08-29T17:48:57.899Z,9.07
2017-08-29T17:51:25.411Z,8.53
2017-08-29T17:53:52.944Z,8.80
2017-08-29T17:56:20.486Z,8.20
2017-08-29T17:58:48.012Z,8.77
2017-08-29T18:01:15.555Z,8.60
2017-08-29T18:03:43.107Z,8.80
2017-08-29T18:06:10.698Z,8.17
2017-08-29T18:08:38.239Z,8.90
2017-08-29T18:11:05.792Z,8.23
2017-08-29T18:13:33.408Z,8.70
2017-08-29T18:16:00.978Z,9.10
2017-08-29T18:18:28.504Z,8.20
2017-08-29T18:20:56.156Z,9.33
2017-08-29T18:23:23.679Z,8.40
2017-08-29T18:25:51.211Z,9.13
2017-08-29T18:28:18.721Z,9.50
2017-08-29T18:30:46.254Z,8.00
2017-08-29T18:33:13.836Z,8.70
2017-08-29T18:35:41.391Z,9.43
2017-08-29T18:38:08.961Z,9.53
2017-08-29T18:40:36.510Z,9.37
2017-08-29T18:43:04.031Z,9.23
2017-08-29T18:45:31.548Z,9.33
2017-08-29T18:47:59.313Z,9.50
2017-08-29T18:50:26.886Z,9.83
2017-08-29T18:52:54.415Z,10.13
2017-08-29T18:55:22.017Z,10.23
2017-08-29T18:57:49.528Z,10.80
2017-08-29T19:00:17.196Z,10.10
2017-08-29T19:02:44.746Z,10.23
2017-08-29T19:05:12.303Z,10.10
2017-08-29T19:07:39.831Z,9.60
2017-08-29T19:10:08.225Z,10.00
2017-08-29T19:12:35.751Z,10.50
2017-08-29T19:15:03.500Z,11.30
2017-08-29T19:17:31.046Z,11.20
2017-08-29T19:19:58.819Z,9.47
2017-08-29T19:22:26.568Z,10.40
2017-08-29T19:24:55.163Z,10.67
2017-08-29T19:27:22.707Z,11.97
2017-08-29T19:29:50.237Z,11.70
2017-08-29T19:32:17.789Z,11.80
2017-08-29T19:34:45.338Z,10.90
2017-08-29T19:37:12.866Z,10.83
2017-08-29T19:39:40.403Z,11.40
2017-08-29T19:42:07.945Z,10.63
2017-08-29T19:44:35.458Z,10.83
2017-08-29T19:47:02.982Z,11.93
2017-08-29T19:49:30.523Z,12.80
2017-08-29T19:51:58.047Z,11.57
2017-08-29T19:54:25.575Z,11.30
2017-08-29T19:56:53.103Z,11.30
2017-08-29T19:59:20.665Z,11.60
2017-08-29T20:01:48.200Z,12.03
2017-08-29T20:04:15.725Z,12.53
2017-08-29T20:06:43.297Z,12.20
2017-08-29T20:09:10.832Z,14.00
2017-08-29T20:11:38.355Z,14.67
2017-08-29T20:14:05.875Z,12.23
2017-08-29T20:16:33.419Z,11.53
2017-08-29T20:19:00.943Z,12.77
2017-08-29T20:21:28.473Z,11.10
2017-08-29T20:23:56.001Z,13.27
2017-08-29T20:26:23.651Z,12.23
2017-08-29T20:28:51.169Z,13.30
2017-08-29T20:31:18.683Z,12.93
2017-08-29T20:33:46.211Z,12.80
2017-08-29T20:36:13.735Z,13.80
2017-08-29T20:38:41.347Z,13.23
2017-08-29T20:41:08.875Z,14.60
2017-08-29T20:43:36.514Z,13.47
2017-08-29T20:46:04.073Z,13.43
2017-08-29T20:48:31.597Z,13.47
2017-08-29T20:50:59.127Z,12.30
2017-08-29T20:53:26.656Z,13.70
2017-08-29T20:55:54.183Z,12.27
2017-08-29T20:58:21.706Z,14.53
2017-08-29T21:00:49.246Z,13.00
2017-08-29T21:03:16.778Z,12.60
2017-08-29T21:05:44.627Z,14.03
2017-08-29T21:08:12.168Z,14.43
2017-08-29T21:10:39.706Z,15.17
2017-08-29T21:13:07.223Z,14.20
2017-08-29T21:15:34.772Z,13.70
2017-08-29T21:18:02.317Z,14.20
2017-08-29T21:20:29.836Z,14.20
2017-08-29T21:22:57.401Z,14.70
2017-08-29T21:25:24.921Z,12.97
2017-08-29T21:27:52.456Z,14.87
2017-08-29T21:30:20.018Z,15.30
2017-08-29T21:32:47.545Z,13.90
2017-08-29T21:35:15.093Z,14.73
2017-08-29T21:37:42.645Z,14.50
2017-08-29T21:40:10.184Z,13.73
2017-08-29T21:42:37.701Z,15.10
2017-08-29T21:45:05.243Z,13.70
2017-08-29T21:47:32.768Z,14.80
2017-08-29T21:50:00.297Z,15.43
2017-08-29T21:52:27.829Z,14.50
2017-08-29T21:54:55.343Z,14.57
2017-08-29T21:57:22.869Z,15.70
2017-08-29T21:59:50.380Z,14.53
2017-08-29T22:02:17.907Z,13.77
2017-08-29T22:04:45.431Z,13.80
2017-08-29T22:07:13.015Z,15.33
2017-08-29T22:09:40.558Z,14.13
2017-08-29T22:12:08.074Z,14.10
2017-08-29T22:14:35.624Z,13.93
2017-08-29T22:17:03.143Z,14.67
2017-08-29T22:19:30.685Z,13.30
2017-08-29T22:21:58.223Z,15.10
2017-08-29T22:24:25.755Z,13.87
2017-08-29T22:26:53.292Z,13.40
2017-08-29T22:29:20.828Z,13.33
2017-08-29T22:31:48.352Z,13.00
2017-08-29T22:34:15.887Z,13.40
2017-08-29T22:36:43.434Z,15.37
2017-08-29T22:39:10.951Z,14.17
2017-08-29T22:41:38.493Z,15.53
2017-08-29T22:44:06.033Z,15.90
2017-08-29T22:46:33.561Z,15.13
2017-08-29T22:49:01.080Z,15.33
2017-08-29T22:51:28.615Z,14.00
2017-08-29T22:53:56.130Z,14.50
2017-08-29T22:56:23.660Z,14.50
2017-08-29T22:58:51.201Z,14.70
2017-08-29T23:01:18.725Z,14.50
2017-08-29T23:03:46.243Z,14.60
2017-08-29T23:06:13.748Z,13.10
2017-08-29T23:08:41.283Z,14.50
2017-08-29T23:11:08.819Z,13.43
2017-08-29T23:13:39.412Z,16.90
2017-08-29T23:16:06.920Z,14.70
2017-08-29T23:18:34.449Z,12.30
2017-08-29T23:21:01.966Z,14.47
2017-08-29T23:23:29.522Z,12.90
2017-08-29T23:25:57.052Z,13.13
2017-08-29T23:28:24.568Z,12.53
2017-08-29T23:30:52.113Z,13.33
2017-08-29T23:33:19.636Z,13.07
2017-08-29T23:35:47.165Z,15.10
2017-08-29T23:38:14.684Z,14.60
2017-08-29T23:40:42.210Z,13.30
2017-08-29T23:43:09.714Z,14.07
2017-08-29T23:45:37.235Z,12.77
2017-08-29T23:48:04.750Z,13.80
2017-08-29T23:50:32.265Z,16.30
2017-08-29T23:52:59.786Z,14.07
2017-08-29T23:55:27.312Z,16.93
2017-08-29T23:57:54.838Z,16.27
